N5200H KSBP-KSBP
Flight info
| Callsign | N5200H |
|---|---|
| Flight time | 0h 50m |
| Altitude | 2000 |
| Route | MQO |
| Aircraft | C172/L-SFG/C |
Departure
| Time | 2026-04-22 00:20 |
|---|---|
| Airport | San Luis County Regional Airport (KSBP) |
Arrival
| Time | 2026-04-22 01:10 |
|---|---|
| Airport | San Luis County Regional Airport (KSBP) |
| Time | Latitude | Longitude | Altitude | Speed | Heading |
|---|---|---|---|---|---|
| 2026-04-22 00:09 | 35.23907 | -120.64170 | 189 ft | 0 kts | 42° |
| 2026-04-22 00:16 | 35.23906 | -120.64144 | 201 ft | 10 kts | 127° |
| 2026-04-22 00:16 | 35.23834 | -120.64105 | 191 ft | 11 kts | 151° |
| 2026-04-22 00:17 | 35.23797 | -120.64040 | 193 ft | 9 kts | 120° |
| 2026-04-22 00:17 | 35.23755 | -120.63951 | 195 ft | 17 kts | 126° |
| 2026-04-22 00:17 | 35.23686 | -120.63829 | 205 ft | 16 kts | 123° |
| 2026-04-22 00:17 | 35.23625 | -120.63720 | 206 ft | 15 kts | 125° |
| 2026-04-22 00:18 | 35.23560 | -120.63606 | 212 ft | 20 kts | 125° |
| 2026-04-22 00:18 | 35.23458 | -120.63428 | 212 ft | 25 kts | 122° |
| 2026-04-22 00:18 | 35.23419 | -120.63391 | 215 ft | 0 kts | 212° |
| 2026-04-22 00:19 | 35.23370 | -120.63454 | 216 ft | 19 kts | 266° |
| 2026-04-22 00:19 | 35.23497 | -120.63692 | 205 ft | 57 kts | 307° |
| 2026-04-22 00:19 | 35.23805 | -120.64193 | 262 ft | 85 kts | 302° |
| 2026-04-22 00:19 | 35.24158 | -120.64830 | 418 ft | 90 kts | 298° |
| 2026-04-22 00:20 | 35.24533 | -120.65416 | 673 ft | 87 kts | 304° |
| 2026-04-22 00:20 | 35.24927 | -120.65953 | 916 ft | 85 kts | 303° |
| 2026-04-22 00:20 | 35.25334 | -120.66475 | 1220 ft | 74 kts | 304° |
| 2026-04-22 00:20 | 35.25660 | -120.66986 | 1429 ft | 82 kts | 301° |
| 2026-04-22 00:21 | 35.26026 | -120.67521 | 1634 ft | 85 kts | 297° |
| 2026-04-22 00:21 | 35.26352 | -120.68047 | 1871 ft | 80 kts | 298° |
| 2026-04-22 00:21 | 35.26732 | -120.68559 | 2146 ft | 78 kts | 301° |
| 2026-04-22 00:21 | 35.27106 | -120.69010 | 2428 ft | 75 kts | 304° |
| 2026-04-22 00:22 | 35.27511 | -120.69520 | 2574 ft | 84 kts | 302° |
| 2026-04-22 00:22 | 35.27871 | -120.70060 | 2806 ft | 82 kts | 301° |
| 2026-04-22 00:22 | 35.28218 | -120.70621 | 2986 ft | 81 kts | 292° |
| 2026-04-22 00:22 | 35.28560 | -120.71191 | 3169 ft | 83 kts | 294° |
| 2026-04-22 00:23 | 35.28549 | -120.71775 | 3345 ft | 77 kts | 219° |
| 2026-04-22 00:23 | 35.27989 | -120.71631 | 3494 ft | 95 kts | 159° |
| 2026-04-22 00:23 | 35.27443 | -120.71218 | 3646 ft | 93 kts | 162° |
| 2026-04-22 00:23 | 35.26898 | -120.70809 | 3797 ft | 90 kts | 164° |
| 2026-04-22 00:24 | 35.26407 | -120.70890 | 3967 ft | 73 kts | 241° |
| 2026-04-22 00:24 | 35.26505 | -120.71515 | 4139 ft | 81 kts | 283° |
| 2026-04-22 00:24 | 35.26713 | -120.72153 | 4304 ft | 81 kts | 281° |
| 2026-04-22 00:24 | 35.26926 | -120.72798 | 4457 ft | 81 kts | 281° |
| 2026-04-22 00:25 | 35.27146 | -120.73435 | 4619 ft | 81 kts | 281° |
| 2026-04-22 00:25 | 35.27359 | -120.74082 | 4779 ft | 83 kts | 281° |
| 2026-04-22 00:25 | 35.27579 | -120.74739 | 4935 ft | 83 kts | 284° |
| 2026-04-22 00:25 | 35.27793 | -120.75416 | 4998 ft | 92 kts | 282° |
| 2026-04-22 00:26 | 35.28042 | -120.76183 | 4875 ft | 101 kts | 282° |
| 2026-04-22 00:26 | 35.28300 | -120.76994 | 4701 ft | 102 kts | 283° |
| 2026-04-22 00:26 | 35.28551 | -120.77817 | 4498 ft | 103 kts | 282° |
| 2026-04-22 00:26 | 35.28805 | -120.78634 | 4300 ft | 102 kts | 283° |
| 2026-04-22 00:27 | 35.28970 | -120.79175 | 4168 ft | 103 kts | 283° |
| 2026-04-22 00:27 | 35.29216 | -120.79998 | 3965 ft | 103 kts | 283° |
| 2026-04-22 00:27 | 35.29543 | -120.81092 | 3703 ft | 104 kts | 282° |
| 2026-04-22 00:27 | 35.29781 | -120.81925 | 3503 ft | 103 kts | 283° |
| 2026-04-22 00:28 | 35.30011 | -120.82750 | 3298 ft | 102 kts | 284° |
| 2026-04-22 00:28 | 35.30232 | -120.83579 | 3091 ft | 102 kts | 283° |
| 2026-04-22 00:28 | 35.30374 | -120.84129 | 3012 ft | 96 kts | 283° |
| 2026-04-22 00:28 | 35.30568 | -120.84862 | 2994 ft | 88 kts | 282° |
| 2026-04-22 00:29 | 35.30750 | -120.85555 | 2997 ft | 86 kts | 282° |
| 2026-04-22 00:29 | 35.30982 | -120.86222 | 3001 ft | 90 kts | 307° |
| 2026-04-22 00:29 | 35.31635 | -120.86300 | 3008 ft | 108 kts | 13° |
| 2026-04-22 00:29 | 35.32339 | -120.85984 | 3006 ft | 107 kts | 11° |
| 2026-04-22 00:30 | 35.33047 | -120.85684 | 3010 ft | 108 kts | 12° |
| 2026-04-22 00:30 | 35.33707 | -120.85258 | 3007 ft | 113 kts | 52° |
| 2026-04-22 00:30 | 35.33855 | -120.84344 | 3012 ft | 111 kts | 93° |
| 2026-04-22 00:30 | 35.33890 | -120.83391 | 3015 ft | 112 kts | 91° |
| 2026-04-22 00:31 | 35.33927 | -120.82436 | 3020 ft | 112 kts | 92° |
| 2026-04-22 00:31 | 35.33737 | -120.81558 | 2984 ft | 107 kts | 128° |
| 2026-04-22 00:31 | 35.33361 | -120.80790 | 2912 ft | 103 kts | 132° |
| 2026-04-22 00:31 | 35.32955 | -120.80092 | 2789 ft | 99 kts | 139° |
| 2026-04-22 00:32 | 35.32526 | -120.79414 | 2623 ft | 103 kts | 137° |
| 2026-04-22 00:32 | 35.32097 | -120.78723 | 2423 ft | 104 kts | 135° |
| 2026-04-22 00:32 | 35.31714 | -120.78038 | 2419 ft | 90 kts | 133° |
| 2026-04-22 00:32 | 35.31391 | -120.77356 | 2402 ft | 96 kts | 130° |
| 2026-04-22 00:33 | 35.31036 | -120.76667 | 2398 ft | 92 kts | 137° |
| 2026-04-22 00:33 | 35.30633 | -120.76108 | 2399 ft | 88 kts | 141° |
| 2026-04-22 00:33 | 35.30255 | -120.75497 | 2380 ft | 91 kts | 134° |
| 2026-04-22 00:33 | 35.29915 | -120.74840 | 2220 ft | 90 kts | 139° |
| 2026-04-22 00:34 | 35.29523 | -120.74246 | 2047 ft | 91 kts | 136° |
| 2026-04-22 00:34 | 35.29173 | -120.73619 | 1914 ft | 91 kts | 140° |
| 2026-04-22 00:34 | 35.28790 | -120.72959 | 1820 ft | 97 kts | 136° |
| 2026-04-22 00:34 | 35.28417 | -120.72292 | 1726 ft | 93 kts | 134° |
| 2026-04-22 00:35 | 35.28042 | -120.71658 | 1587 ft | 92 kts | 141° |
| 2026-04-22 00:35 | 35.27663 | -120.71028 | 1463 ft | 92 kts | 130° |
| 2026-04-22 00:35 | 35.27314 | -120.70372 | 1344 ft | 91 kts | 131° |
| 2026-04-22 00:35 | 35.26960 | -120.69739 | 1202 ft | 88 kts | 140° |
| 2026-04-22 00:36 | 35.26611 | -120.69169 | 1086 ft | 82 kts | 133° |
| 2026-04-22 00:36 | 35.26293 | -120.68575 | 957 ft | 88 kts | 131° |
| 2026-04-22 00:36 | 35.25961 | -120.67970 | 841 ft | 85 kts | 136° |
| 2026-04-22 00:36 | 35.25615 | -120.67397 | 735 ft | 85 kts | 133° |
| 2026-04-22 00:37 | 35.25268 | -120.66790 | 595 ft | 89 kts | 131° |
| 2026-04-22 00:37 | 35.24913 | -120.66187 | 526 ft | 89 kts | 133° |
| 2026-04-22 00:37 | 35.24567 | -120.65526 | 388 ft | 93 kts | 133° |
| 2026-04-22 00:37 | 35.24200 | -120.64904 | 269 ft | 87 kts | 136° |
| 2026-04-22 00:38 | 35.23865 | -120.64272 | 306 ft | 94 kts | 128° |
| 2026-04-22 00:38 | 35.23504 | -120.63565 | 477 ft | 99 kts | 129° |
| 2026-04-22 00:38 | 35.23160 | -120.62878 | 759 ft | 91 kts | 130° |
| 2026-04-22 00:38 | 35.22813 | -120.62248 | 1022 ft | 92 kts | 130° |
| 2026-04-22 00:39 | 35.22456 | -120.61593 | 1330 ft | 93 kts | 131° |
| 2026-04-22 00:39 | 35.22110 | -120.60912 | 1574 ft | 96 kts | 130° |
| 2026-04-22 00:39 | 35.21621 | -120.60410 | 1791 ft | 87 kts | 184° |
| 2026-04-22 00:39 | 35.21116 | -120.60623 | 2053 ft | 75 kts | 224° |
| 2026-04-22 00:40 | 35.20729 | -120.61047 | 2369 ft | 72 kts | 226° |
| 2026-04-22 00:40 | 35.20356 | -120.61461 | 2638 ft | 72 kts | 228° |
| 2026-04-22 00:40 | 35.20007 | -120.61892 | 2894 ft | 72 kts | 228° |
| 2026-04-22 00:40 | 35.19597 | -120.62279 | 3151 ft | 74 kts | 229° |
| 2026-04-22 00:41 | 35.19224 | -120.62778 | 3338 ft | 83 kts | 231° |
| 2026-04-22 00:41 | 35.18782 | -120.63317 | 3367 ft | 94 kts | 226° |
| 2026-04-22 00:41 | 35.18316 | -120.63864 | 3376 ft | 91 kts | 230° |
| 2026-04-22 00:41 | 35.17843 | -120.64411 | 3370 ft | 96 kts | 227° |
| 2026-04-22 00:42 | 35.17342 | -120.64960 | 3327 ft | 97 kts | 229° |
| 2026-04-22 00:42 | 35.16860 | -120.65533 | 3316 ft | 94 kts | 230° |
| 2026-04-22 00:42 | 35.16391 | -120.66075 | 3310 ft | 93 kts | 231° |
| 2026-04-22 00:42 | 35.16243 | -120.66755 | 3334 ft | 89 kts | 284° |
| 2026-04-22 00:43 | 35.16674 | -120.67341 | 3323 ft | 93 kts | 308° |
| 2026-04-22 00:43 | 35.17116 | -120.67883 | 3348 ft | 88 kts | 306° |
| 2026-04-22 00:43 | 35.17533 | -120.68383 | 3405 ft | 84 kts | 309° |
| 2026-04-22 00:43 | 35.17886 | -120.68905 | 3363 ft | 84 kts | 292° |
| 2026-04-22 00:44 | 35.18311 | -120.69446 | 3362 ft | 92 kts | 327° |
| 2026-04-22 00:44 | 35.18957 | -120.69728 | 3239 ft | 104 kts | 331° |
| 2026-04-22 00:44 | 35.19559 | -120.70143 | 3224 ft | 98 kts | 309° |
| 2026-04-22 00:44 | 35.20076 | -120.70697 | 3309 ft | 98 kts | 309° |
| 2026-04-22 00:45 | 35.20586 | -120.71258 | 3450 ft | 98 kts | 309° |
| 2026-04-22 00:45 | 35.21096 | -120.71879 | 3418 ft | 109 kts | 307° |
| 2026-04-22 00:45 | 35.21690 | -120.72472 | 3360 ft | 108 kts | 309° |
| 2026-04-22 00:45 | 35.22224 | -120.73078 | 3356 ft | 104 kts | 310° |
| 2026-04-22 00:46 | 35.22776 | -120.73642 | 3304 ft | 104 kts | 313° |
| 2026-04-22 00:46 | 35.23318 | -120.74184 | 3370 ft | 97 kts | 313° |
| 2026-04-22 00:46 | 35.23853 | -120.74710 | 3342 ft | 97 kts | 312° |
| 2026-04-22 00:46 | 35.24407 | -120.75174 | 3327 ft | 100 kts | 319° |
| 2026-04-22 00:47 | 35.24990 | -120.75667 | 3281 ft | 103 kts | 319° |
| 2026-04-22 00:47 | 35.25561 | -120.76133 | 3236 ft | 96 kts | 310° |
| 2026-04-22 00:47 | 35.25800 | -120.76784 | 3213 ft | 83 kts | 266° |
| 2026-04-22 00:47 | 35.25507 | -120.77353 | 3212 ft | 86 kts | 213° |
| 2026-04-22 00:48 | 35.24900 | -120.77249 | 3225 ft | 99 kts | 159° |
| 2026-04-22 00:48 | 35.24303 | -120.76890 | 3183 ft | 92 kts | 167° |
| 2026-04-22 00:48 | 35.23750 | -120.76561 | 3233 ft | 89 kts | 168° |
| 2026-04-22 00:48 | 35.23161 | -120.76233 | 3286 ft | 100 kts | 166° |
| 2026-04-22 00:49 | 35.22510 | -120.75875 | 3345 ft | 104 kts | 166° |
| 2026-04-22 00:49 | 35.22018 | -120.75245 | 3337 ft | 113 kts | 111° |
| 2026-04-22 00:49 | 35.22144 | -120.74295 | 3320 ft | 117 kts | 55° |
| 2026-04-22 00:49 | 35.22808 | -120.73828 | 3306 ft | 105 kts | 352° |
| 2026-04-22 00:50 | 35.23429 | -120.74176 | 3294 ft | 99 kts | 312° |
| 2026-04-22 00:50 | 35.23983 | -120.74692 | 3286 ft | 102 kts | 314° |
| 2026-04-22 00:50 | 35.24535 | -120.75244 | 3309 ft | 102 kts | 314° |
| 2026-04-22 00:50 | 35.25091 | -120.75762 | 3338 ft | 101 kts | 318° |
| 2026-04-22 00:51 | 35.25636 | -120.76277 | 3299 ft | 96 kts | 304° |
| 2026-04-22 00:51 | 35.25754 | -120.76993 | 3258 ft | 88 kts | 250° |
| 2026-04-22 00:51 | 35.25300 | -120.77455 | 3244 ft | 93 kts | 201° |
| 2026-04-22 00:51 | 35.24645 | -120.77273 | 3217 ft | 104 kts | 161° |
| 2026-04-22 00:52 | 35.24052 | -120.76843 | 3236 ft | 95 kts | 160° |
| 2026-04-22 00:52 | 35.23467 | -120.76418 | 3318 ft | 99 kts | 159° |
| 2026-04-22 00:52 | 35.22851 | -120.75955 | 3338 ft | 108 kts | 159° |
| 2026-04-22 00:52 | 35.22326 | -120.75301 | 3339 ft | 115 kts | 120° |
| 2026-04-22 00:53 | 35.22234 | -120.74307 | 3358 ft | 121 kts | 82° |
| 2026-04-22 00:53 | 35.22672 | -120.73418 | 3263 ft | 123 kts | 30° |
| 2026-04-22 00:53 | 35.23456 | -120.73259 | 3208 ft | 112 kts | 334° |
| 2026-04-22 00:53 | 35.24019 | -120.73819 | 3264 ft | 100 kts | 302° |
| 2026-04-22 00:54 | 35.24521 | -120.74498 | 3087 ft | 113 kts | 315° |
| 2026-04-22 00:54 | 35.25122 | -120.75038 | 3098 ft | 105 kts | 314° |
| 2026-04-22 00:54 | 35.25692 | -120.75599 | 3179 ft | 103 kts | 311° |
| 2026-04-22 00:54 | 35.26242 | -120.76185 | 3265 ft | 106 kts | 314° |
| 2026-04-22 00:55 | 35.26835 | -120.76747 | 3304 ft | 109 kts | 311° |
| 2026-04-22 00:55 | 35.27404 | -120.77381 | 3308 ft | 113 kts | 311° |
| 2026-04-22 00:55 | 35.28624 | -120.78687 | 3223 ft | 122 kts | 306° |
| 2026-04-22 00:56 | 35.29009 | -120.79585 | 3069 ft | 115 kts | 284° |
| 2026-04-22 00:56 | 35.29226 | -120.80443 | 2973 ft | 100 kts | 282° |
| 2026-04-22 00:56 | 35.29376 | -120.81270 | 2925 ft | 102 kts | 278° |
| 2026-04-22 00:56 | 35.29555 | -120.82141 | 2941 ft | 108 kts | 283° |
| 2026-04-22 00:57 | 35.29779 | -120.83020 | 2988 ft | 108 kts | 281° |
| 2026-04-22 00:57 | 35.29845 | -120.83931 | 2889 ft | 113 kts | 270° |
| 2026-04-22 00:57 | 35.29752 | -120.84840 | 2875 ft | 100 kts | 244° |
| 2026-04-22 00:57 | 35.29202 | -120.85269 | 2996 ft | 103 kts | 191° |
| 2026-04-22 00:58 | 35.28490 | -120.85025 | 2986 ft | 112 kts | 152° |
| 2026-04-22 00:58 | 35.28107 | -120.84177 | 3019 ft | 120 kts | 105° |
| 2026-04-22 00:58 | 35.27770 | -120.83278 | 3113 ft | 117 kts | 120° |
| 2026-04-22 00:58 | 35.27494 | -120.82329 | 3111 ft | 123 kts | 114° |
| 2026-04-22 00:59 | 35.27213 | -120.81308 | 3134 ft | 128 kts | 115° |
| 2026-04-22 00:59 | 35.26989 | -120.80290 | 3227 ft | 121 kts | 107° |
| 2026-04-22 00:59 | 35.26755 | -120.79358 | 3419 ft | 114 kts | 114° |
| 2026-04-22 00:59 | 35.26503 | -120.78381 | 3579 ft | 117 kts | 108° |
| 2026-04-22 01:00 | 35.26254 | -120.77370 | 3565 ft | 135 kts | 114° |
| 2026-04-22 01:00 | 35.25933 | -120.76255 | 3552 ft | 133 kts | 114° |
| 2026-04-22 01:00 | 35.25625 | -120.75206 | 3527 ft | 123 kts | 116° |
| 2026-04-22 01:00 | 35.25414 | -120.74220 | 3542 ft | 121 kts | 109° |
| 2026-04-22 01:01 | 35.25267 | -120.73200 | 3543 ft | 126 kts | 107° |
| 2026-04-22 01:01 | 35.25084 | -120.72158 | 3494 ft | 124 kts | 107° |
| 2026-04-22 01:01 | 35.24935 | -120.71129 | 3517 ft | 120 kts | 104° |
| 2026-04-22 01:01 | 35.24762 | -120.70143 | 3505 ft | 118 kts | 109° |
| 2026-04-22 01:02 | 35.24515 | -120.69179 | 3471 ft | 117 kts | 114° |
| 2026-04-22 01:02 | 35.24307 | -120.68206 | 3455 ft | 120 kts | 110° |
| 2026-04-22 01:02 | 35.24080 | -120.67219 | 3479 ft | 120 kts | 114° |
| 2026-04-22 01:02 | 35.23833 | -120.66239 | 3495 ft | 119 kts | 119° |
| 2026-04-22 01:03 | 35.23316 | -120.65594 | 3540 ft | 102 kts | 172° |
| 2026-04-22 01:03 | 35.22685 | -120.65705 | 3556 ft | 90 kts | 222° |
| 2026-04-22 01:03 | 35.22342 | -120.66335 | 3541 ft | 92 kts | 251° |
| 2026-04-22 01:03 | 35.22301 | -120.67127 | 3492 ft | 98 kts | 275° |
| 2026-04-22 01:04 | 35.22337 | -120.67947 | 3485 ft | 94 kts | 268° |
| 2026-04-22 01:04 | 35.22502 | -120.68725 | 3488 ft | 97 kts | 280° |
| 2026-04-22 01:04 | 35.22657 | -120.69479 | 3568 ft | 88 kts | 278° |
| 2026-04-22 01:04 | 35.22825 | -120.70204 | 3594 ft | 88 kts | 287° |
| 2026-04-22 01:05 | 35.23025 | -120.70957 | 3501 ft | 96 kts | 283° |
| 2026-04-22 01:05 | 35.23175 | -120.71741 | 3512 ft | 95 kts | 280° |
| 2026-04-22 01:05 | 35.23234 | -120.72519 | 3567 ft | 89 kts | 269° |
| 2026-04-22 01:05 | 35.23315 | -120.73274 | 3559 ft | 97 kts | 281° |
| 2026-04-22 01:06 | 35.23390 | -120.74115 | 3504 ft | 102 kts | 274° |
| 2026-04-22 01:06 | 35.23499 | -120.74969 | 3483 ft | 103 kts | 275° |
| 2026-04-22 01:06 | 35.23580 | -120.75813 | 3491 ft | 100 kts | 274° |
| 2026-04-22 01:06 | 35.23927 | -120.76522 | 3496 ft | 104 kts | 321° |
| 2026-04-22 01:07 | 35.24664 | -120.76564 | 3515 ft | 115 kts | 13° |
| 2026-04-22 01:07 | 35.25366 | -120.75985 | 3513 ft | 129 kts | 40° |
| 2026-04-22 01:07 | 35.25535 | -120.74917 | 3369 ft | 134 kts | 113° |
| 2026-04-22 01:07 | 35.25245 | -120.73908 | 3421 ft | 123 kts | 117° |
| 2026-04-22 01:08 | 35.24966 | -120.72927 | 3422 ft | 122 kts | 113° |
| 2026-04-22 01:08 | 35.24692 | -120.71924 | 2884 ft | 129 kts | 115° |
| 2026-04-22 01:08 | 35.24458 | -120.70817 | 2313 ft | 139 kts | 102° |
| 2026-04-22 01:08 | 35.24302 | -120.69667 | 1752 ft | 134 kts | 103° |
| 2026-04-22 01:09 | 35.24166 | -120.68645 | 1510 ft | 117 kts | 107° |
| 2026-04-22 01:09 | 35.24038 | -120.67714 | 1556 ft | 109 kts | 104° |
| 2026-04-22 01:09 | 35.23965 | -120.66739 | 1624 ft | 117 kts | 99° |
| 2026-04-22 01:09 | 35.24223 | -120.65728 | 809 ft | 143 kts | 58° |
| 2026-04-22 01:10 | 35.24104 | -120.64732 | 276 ft | 123 kts | 135° |
| 2026-04-22 01:10 | 35.23694 | -120.64029 | 205 ft | 76 kts | 131° |
| 2026-04-22 01:10 | 35.23495 | -120.63636 | 206 ft | 23 kts | 99° |
| 2026-04-22 01:10 | 35.23457 | -120.63578 | 208 ft | 13 kts | 130° |
| 2026-04-22 01:11 | 35.23376 | -120.63427 | 215 ft | 21 kts | 90° |
| 2026-04-22 01:11 | 35.23415 | -120.63393 | 213 ft | 0 kts | 9° |
| 2026-04-22 01:11 | 35.23907 | -120.64170 | 189 ft | 0 kts | 42° |
| 2026-04-22 01:14 | 35.23903 | -120.64149 | 196 ft | 7 kts | 152° |
| 2026-04-22 01:14 | 35.23852 | -120.64138 | 190 ft | 12 kts | 150° |
| 2026-04-22 01:15 | 35.23786 | -120.64013 | 194 ft | 18 kts | 114° |
| 2026-04-22 01:15 | 35.23729 | -120.63907 | 197 ft | 12 kts | 129° |
| 2026-04-22 01:15 | 35.23692 | -120.63837 | 202 ft | 7 kts | 129° |
| 2026-04-22 01:15 | 35.23668 | -120.63798 | 200 ft | 7 kts | 128° |
| 2026-04-22 01:16 | 35.23619 | -120.63711 | 205 ft | 18 kts | 127° |
| 2026-04-22 01:16 | 35.23545 | -120.63581 | 212 ft | 16 kts | 123° |
| 2026-04-22 01:16 | 35.23491 | -120.63487 | 213 ft | 12 kts | 126° |
| 2026-04-22 01:16 | 35.23436 | -120.63400 | 213 ft | 12 kts | 147° |
| 2026-04-22 01:17 | 35.23417 | -120.63397 | 214 ft | 0 kts | 206° |
| 2026-04-22 01:20 | 35.23401 | -120.63408 | 213 ft | 10 kts | 210° |
| 2026-04-22 01:20 | 35.23402 | -120.63533 | 209 ft | 29 kts | 300° |
| 2026-04-22 01:21 | 35.23627 | -120.63918 | 205 ft | 78 kts | 300° |
| 2026-04-22 01:21 | 35.23971 | -120.64495 | 383 ft | 86 kts | 296° |
| 2026-04-22 01:21 | 35.24304 | -120.65095 | 646 ft | 85 kts | 294° |
| 2026-04-22 01:21 | 35.24655 | -120.65694 | 871 ft | 88 kts | 302° |
| 2026-04-22 01:22 | 35.25038 | -120.66270 | 1120 ft | 87 kts | 307° |
| 2026-04-22 01:22 | 35.25423 | -120.66823 | 1388 ft | 85 kts | 299° |
| 2026-04-22 01:22 | 35.25786 | -120.67338 | 1776 ft | 71 kts | 307° |
| 2026-04-22 01:22 | 35.26094 | -120.67780 | 2012 ft | 74 kts | 302° |
| 2026-04-22 01:23 | 35.26417 | -120.68250 | 2236 ft | 77 kts | 302° |
| 2026-04-22 01:23 | 35.26779 | -120.68819 | 2334 ft | 90 kts | 302° |
| 2026-04-22 01:23 | 35.27164 | -120.69405 | 2568 ft | 87 kts | 301° |
| 2026-04-22 01:23 | 35.27528 | -120.69980 | 2808 ft | 84 kts | 301° |
| 2026-04-22 01:24 | 35.27878 | -120.70516 | 3091 ft | 78 kts | 301° |
| 2026-04-22 01:24 | 35.28213 | -120.71010 | 3383 ft | 73 kts | 300° |
| 2026-04-22 01:24 | 35.28534 | -120.71470 | 3662 ft | 69 kts | 300° |
| 2026-04-22 01:24 | 35.28853 | -120.71917 | 3883 ft | 71 kts | 300° |
| 2026-04-22 01:25 | 35.29190 | -120.72393 | 4010 ft | 82 kts | 301° |
| 2026-04-22 01:25 | 35.29577 | -120.72963 | 4019 ft | 89 kts | 301° |
| 2026-04-22 01:25 | 35.29969 | -120.73566 | 4020 ft | 91 kts | 301° |
| 2026-04-22 01:25 | 35.30367 | -120.74182 | 4017 ft | 95 kts | 301° |
| 2026-04-22 01:26 | 35.30788 | -120.74823 | 4018 ft | 100 kts | 301° |
| 2026-04-22 01:26 | 35.31238 | -120.75511 | 4026 ft | 106 kts | 301° |
| 2026-04-22 01:26 | 35.31704 | -120.76245 | 4021 ft | 113 kts | 301° |
| 2026-04-22 01:26 | 35.32191 | -120.77011 | 4019 ft | 114 kts | 301° |
| 2026-04-22 01:27 | 35.32672 | -120.77762 | 4012 ft | 113 kts | 301° |
| 2026-04-22 01:27 | 35.33154 | -120.78494 | 4018 ft | 109 kts | 301° |
| 2026-04-22 01:27 | 35.33629 | -120.79228 | 4020 ft | 112 kts | 302° |
| 2026-04-22 01:27 | 35.34106 | -120.79984 | 4018 ft | 113 kts | 302° |
| 2026-04-22 01:28 | 35.34423 | -120.80817 | 4003 ft | 107 kts | 282° |
| 2026-04-22 01:28 | 35.34628 | -120.81684 | 4010 ft | 106 kts | 282° |
| 2026-04-22 01:28 | 35.34836 | -120.82538 | 4010 ft | 104 kts | 282° |
| 2026-04-22 01:28 | 35.35040 | -120.83383 | 4008 ft | 101 kts | 282° |
| 2026-04-22 01:29 | 35.35242 | -120.84191 | 4010 ft | 97 kts | 282° |
| 2026-04-22 01:29 | 35.35442 | -120.84970 | 4007 ft | 94 kts | 282° |
| 2026-04-22 01:29 | 35.35636 | -120.85718 | 4006 ft | 90 kts | 282° |
| 2026-04-22 01:29 | 35.35825 | -120.86436 | 4010 ft | 87 kts | 282° |
| 2026-04-22 01:30 | 35.36011 | -120.87135 | 4008 ft | 84 kts | 279° |
| 2026-04-22 01:30 | 35.35910 | -120.87796 | 4006 ft | 79 kts | 251° |
| 2026-04-22 01:30 | 35.35739 | -120.88448 | 4012 ft | 83 kts | 252° |
| 2026-04-22 01:30 | 35.35550 | -120.89161 | 4026 ft | 93 kts | 252° |
| 2026-04-22 01:31 | 35.35337 | -120.89939 | 4026 ft | 99 kts | 252° |
| 2026-04-22 01:31 | 35.35111 | -120.90754 | 4025 ft | 102 kts | 252° |
| 2026-04-22 01:31 | 35.34882 | -120.91587 | 4028 ft | 104 kts | 252° |
| 2026-04-22 01:31 | 35.34650 | -120.92429 | 4028 ft | 105 kts | 252° |
| 2026-04-22 01:32 | 35.34415 | -120.93280 | 4029 ft | 106 kts | 252° |
| 2026-04-22 01:32 | 35.34182 | -120.94124 | 4027 ft | 106 kts | 252° |
| 2026-04-22 01:32 | 35.33943 | -120.94979 | 4028 ft | 106 kts | 252° |
| 2026-04-22 01:32 | 35.33700 | -120.95833 | 4025 ft | 107 kts | 252° |
| 2026-04-22 01:33 | 35.33461 | -120.96695 | 4027 ft | 107 kts | 252° |
| 2026-04-22 01:33 | 35.33221 | -120.97560 | 4029 ft | 107 kts | 252° |
| 2026-04-22 01:33 | 35.32974 | -120.98422 | 4028 ft | 107 kts | 252° |
| 2026-04-22 01:33 | 35.32728 | -120.99289 | 4028 ft | 108 kts | 252° |
| 2026-04-22 01:34 | 35.32485 | -121.00159 | 4028 ft | 108 kts | 252° |
| 2026-04-22 01:34 | 35.32087 | -121.00922 | 4016 ft | 111 kts | 220° |
| 2026-04-22 01:34 | 35.31348 | -121.01256 | 3949 ft | 118 kts | 192° |
| 2026-04-22 01:34 | 35.30547 | -121.01012 | 3831 ft | 124 kts | 156° |
| 2026-04-22 01:35 | 35.29992 | -121.00185 | 3712 ft | 132 kts | 115° |
| 2026-04-22 01:35 | 35.29974 | -120.99071 | 3594 ft | 133 kts | 75° |
| 2026-04-22 01:35 | 35.30240 | -120.97994 | 3493 ft | 132 kts | 73° |
| 2026-04-22 01:35 | 35.30493 | -120.96925 | 3421 ft | 128 kts | 74° |
| 2026-04-22 01:36 | 35.30855 | -120.95974 | 3411 ft | 120 kts | 50° |
| 2026-04-22 01:36 | 35.31339 | -120.95168 | 3410 ft | 115 kts | 50° |
| 2026-04-22 01:36 | 35.31824 | -120.94417 | 3412 ft | 113 kts | 53° |
| 2026-04-22 01:36 | 35.32242 | -120.93610 | 3410 ft | 112 kts | 54° |
| 2026-04-22 01:37 | 35.32666 | -120.92827 | 3391 ft | 112 kts | 53° |
| 2026-04-22 01:37 | 35.33091 | -120.92031 | 3403 ft | 110 kts | 55° |
| 2026-04-22 01:37 | 35.33527 | -120.91272 | 3409 ft | 109 kts | 51° |
| 2026-04-22 01:37 | 35.33952 | -120.90501 | 3409 ft | 109 kts | 54° |
| 2026-04-22 01:38 | 35.34379 | -120.89740 | 3411 ft | 108 kts | 47° |
| 2026-04-22 01:38 | 35.34866 | -120.89022 | 3417 ft | 117 kts | 48° |
| 2026-04-22 01:38 | 35.35389 | -120.88188 | 3433 ft | 129 kts | 52° |
| 2026-04-22 01:38 | 35.35913 | -120.87259 | 3425 ft | 136 kts | 63° |
| 2026-04-22 01:39 | 35.36043 | -120.86139 | 3330 ft | 131 kts | 103° |
| 2026-04-22 01:39 | 35.35701 | -120.85165 | 3189 ft | 122 kts | 132° |
| 2026-04-22 01:39 | 35.35205 | -120.84316 | 3015 ft | 124 kts | 131° |
| 2026-04-22 01:39 | 35.34711 | -120.83443 | 2838 ft | 125 kts | 132° |
| 2026-04-22 01:40 | 35.34214 | -120.82569 | 2661 ft | 125 kts | 131° |
| 2026-04-22 01:40 | 35.33713 | -120.81687 | 2484 ft | 127 kts | 131° |
| 2026-04-22 01:40 | 35.33221 | -120.80814 | 2418 ft | 120 kts | 131° |
| 2026-04-22 01:40 | 35.32759 | -120.79990 | 2400 ft | 114 kts | 132° |
| 2026-04-22 01:41 | 35.32302 | -120.79180 | 2407 ft | 114 kts | 133° |
| 2026-04-22 01:41 | 35.31893 | -120.78461 | 2387 ft | 94 kts | 133° |
| 2026-04-22 01:41 | 35.31529 | -120.77802 | 2412 ft | 98 kts | 132° |
| 2026-04-22 01:41 | 35.31127 | -120.77097 | 2422 ft | 100 kts | 135° |
| 2026-04-22 01:42 | 35.30737 | -120.76412 | 2415 ft | 97 kts | 135° |
| 2026-04-22 01:42 | 35.30355 | -120.75742 | 2350 ft | 93 kts | 134° |
| 2026-04-22 01:42 | 35.29995 | -120.75113 | 2246 ft | 91 kts | 135° |
| 2026-04-22 01:42 | 35.29633 | -120.74482 | 2128 ft | 91 kts | 134° |
| 2026-04-22 01:43 | 35.29257 | -120.73826 | 2003 ft | 96 kts | 132° |
| 2026-04-22 01:43 | 35.28882 | -120.73162 | 1877 ft | 95 kts | 134° |
| 2026-04-22 01:43 | 35.28513 | -120.72514 | 1745 ft | 90 kts | 132° |
| 2026-04-22 01:43 | 35.28152 | -120.71875 | 1622 ft | 93 kts | 132° |
| 2026-04-22 01:44 | 35.27788 | -120.71231 | 1499 ft | 92 kts | 132° |
| 2026-04-22 01:44 | 35.27412 | -120.70575 | 1369 ft | 94 kts | 135° |
| 2026-04-22 01:44 | 35.27039 | -120.69928 | 1228 ft | 92 kts | 135° |
| 2026-04-22 01:44 | 35.26680 | -120.69299 | 1097 ft | 89 kts | 135° |
| 2026-04-22 01:45 | 35.26330 | -120.68686 | 966 ft | 86 kts | 134° |
| 2026-04-22 01:45 | 35.25991 | -120.68087 | 849 ft | 86 kts | 133° |
| 2026-04-22 01:45 | 35.25650 | -120.67489 | 741 ft | 84 kts | 133° |
| 2026-04-22 01:45 | 35.25329 | -120.66926 | 628 ft | 76 kts | 135° |
| 2026-04-22 01:46 | 35.25028 | -120.66380 | 524 ft | 80 kts | 131° |
| 2026-04-22 01:46 | 35.24703 | -120.65800 | 410 ft | 83 kts | 131° |
| 2026-04-22 01:46 | 35.24375 | -120.65228 | 308 ft | 81 kts | 133° |
| 2026-04-22 01:46 | 35.24058 | -120.64663 | 201 ft | 78 kts | 134° |
| 2026-04-22 01:47 | 35.23778 | -120.64187 | 192 ft | 58 kts | 127° |
| 2026-04-22 01:47 | 35.23664 | -120.63971 | 198 ft | 17 kts | 134° |
| 2026-04-22 01:47 | 35.23600 | -120.63868 | 201 ft | 15 kts | 125° |
| 2026-04-22 01:47 | 35.23528 | -120.63740 | 203 ft | 22 kts | 112° |
| 2026-04-22 01:48 | 35.23535 | -120.63582 | 213 ft | 2 kts | 67° |
| 2026-04-22 01:48 | 35.23552 | -120.63578 | 211 ft | 6 kts | 312° |
| 2026-04-22 01:48 | 35.23572 | -120.63626 | 205 ft | 7 kts | 307° |
| 2026-04-22 01:49 | 35.23616 | -120.63660 | 205 ft | 8 kts | 340° |
| 2026-04-22 01:49 | 35.23647 | -120.63659 | 208 ft | 0 kts | 15° |